Time;durP1;ratioP1;P1;durP2;ratioP2;P2;SDS_P1;SDS_P2;PMS_P1;PMS_P2;Temp;Humidity;BMP_temperature;BMP_pressure;BME280_temperature;BME280_humidity;BME280_pressure;Samples;Min_cycle;Max_cycle;Signal;HPM_P1;HPM_P2
2022/03/02 00:00:00;;;;;;;16.87;9.80;;;-1.50;99.90;;;;;;4991961;28;20399;-73
2022/03/02 00:02:26;;;;;;;16.30;8.90;;;-1.50;99.90;;;;;;4992927;28;20232;-72
2022/03/02 00:04:52;;;;;;;22.00;10.67;;;-1.50;99.90;;;;;;4992537;28;20180;-73
2022/03/02 00:07:17;;;;;;;12.33;9.20;;;-1.60;99.90;;;;;;4991777;28;20190;-72
2022/03/02 00:09:43;;;;;;;19.00;9.67;;;-1.60;99.90;;;;;;4992493;28;20275;-72
2022/03/02 00:12:08;;;;;;;15.97;9.90;;;-1.60;99.90;;;;;;4993656;28;20237;-72
2022/03/02 00:14:34;;;;;;;22.53;10.73;;;-1.60;99.90;;;;;;4991739;28;20215;-72
2022/03/02 00:16:59;;;;;;;19.77;9.77;;;-1.60;99.90;;;;;;4991703;28;20191;-72
2022/03/02 00:19:25;;;;;;;21.40;9.10;;;-1.50;99.90;;;;;;4991611;28;20471;-72
2022/03/02 00:21:50;;;;;;;15.47;9.27;;;-1.50;99.90;;;;;;4991268;28;20590;-72
2022/03/02 00:24:16;;;;;;;23.03;10.43;;;-1.50;99.90;;;;;;4992590;28;20192;-72
2022/03/02 00:26:42;;;;;;;19.10;10.87;;;-1.40;99.90;;;;;;4993121;28;20592;-72
2022/03/02 00:29:07;;;;;;;16.00;9.30;;;-1.40;99.90;;;;;;4991270;28;20191;-72
2022/03/02 00:31:33;;;;;;;17.60;10.03;;;-1.30;99.90;;;;;;4990607;28;20213;-71
2022/03/02 00:33:59;;;;;;;19.33;11.03;;;-1.30;99.90;;;;;;4990492;28;20205;-72
2022/03/02 00:36:24;;;;;;;19.17;11.20;;;-1.30;99.90;;;;;;4991243;28;20178;-72
2022/03/02 00:38:50;;;;;;;18.70;10.10;;;-1.30;99.90;;;;;;4991416;28;20189;-72
2022/03/02 00:41:16;;;;;;;19.73;9.97;;;-1.20;99.90;;;;;;4990117;28;20249;-72
2022/03/02 00:43:41;;;;;;;22.50;11.33;;;-1.20;99.90;;;;;;4990852;28;20185;-72
2022/03/02 00:46:07;;;;;;;15.70;10.77;;;-1.10;99.90;;;;;;4990884;28;20845;-72
2022/03/02 00:48:32;;;;;;;15.20;10.17;;;-1.10;99.90;;;;;;4991010;28;20220;-72
2022/03/02 00:50:58;;;;;;;17.80;9.70;;;-1.10;99.90;;;;;;4990724;28;20207;-72
2022/03/02 00:53:24;;;;;;;18.17;9.43;;;-1.00;99.90;;;;;;4991117;28;20493;-72
2022/03/02 00:55:50;;;;;;;19.97;10.80;;;-1.00;99.90;;;;;;4990543;28;20425;-72
2022/03/02 00:58:16;;;;;;;16.43;9.80;;;-1.00;99.90;;;;;;4990517;28;20219;-72
2022/03/02 05:32:33;;;;;;;30.87;11.87;;;-2.90;99.90;;;;;;5244719;22;20504;-71
2022/03/02 05:34:59;;;;;;;20.17;9.50;;;-2.90;99.90;;;;;;4999271;28;20512;-72
2022/03/02 05:37:24;;;;;;;18.37;10.60;;;-2.90;99.90;;;;;;5011036;28;20171;-73
2022/03/02 05:39:50;;;;;;;19.37;11.30;;;-2.80;99.90;;;;;;5011104;28;20234;-72
2022/03/02 05:42:15;;;;;;;16.83;9.63;;;-2.80;99.90;;;;;;4996523;28;20249;-75
2022/03/02 05:44:41;;;;;;;33.00;10.73;;;-2.80;99.90;;;;;;4990706;28;20266;-75
2022/03/02 05:47:06;;;;;;;19.90;9.90;;;-2.80;99.90;;;;;;4991263;28;20236;-73
2022/03/02 05:49:32;;;;;;;20.73;11.10;;;-2.80;99.90;;;;;;4990038;28;20190;-73
2022/03/02 05:51:58;;;;;;;27.63;10.73;;;-2.70;99.90;;;;;;4990967;28;20203;-75
2022/03/02 05:54:23;;;;;;;22.67;10.87;;;-2.70;99.90;;;;;;4990144;28;20282;-73
2022/03/02 05:56:49;;;;;;;17.97;9.53;;;-2.60;99.90;;;;;;4990500;28;20188;-74
2022/03/02 05:59:16;;;;;;;17.67;10.30;;;-2.60;99.90;;;;;;4990721;28;20187;-71
2022/03/02 06:01:41;;;;;;;19.23;11.10;;;-2.50;99.90;;;;;;4990513;28;20584;-71
2022/03/02 06:04:07;;;;;;;18.30;10.93;;;-2.40;99.90;;;;;;4988903;28;20399;-74
2022/03/02 06:06:35;;;;;;;21.30;11.30;;;-2.30;99.90;;;;;;4990064;28;20212;-74
2022/03/02 06:09:05;;;;;;;18.63;10.50;;;-2.20;99.90;;;;;;4990698;28;20186;-74
2022/03/02 06:11:31;;;;;;;16.87;9.77;;;-2.00;99.90;;;;;;4990546;28;20431;-74
2022/03/02 06:13:57;;;;;;;19.83;9.87;;;-1.90;99.90;;;;;;4990209;28;20927;-75
2022/03/02 06:16:23;;;;;;;21.53;10.43;;;-1.80;99.90;;;;;;4990817;28;20659;-75
2022/03/02 06:18:49;;;;;;;14.63;9.60;;;-1.70;99.90;;;;;;4989938;28;20399;-74
2022/03/02 06:21:23;;;;;;;18.83;10.57;;;-1.60;99.90;;;;;;4990254;28;20475;-74
2022/03/02 06:23:49;;;;;;;20.60;10.70;;;-1.60;99.90;;;;;;4990259;28;20515;-75
2022/03/02 06:26:15;;;;;;;18.50;10.93;;;-1.50;99.90;;;;;;4989650;28;20486;-73
2022/03/02 06:28:40;;;;;;;16.77;10.63;;;-1.40;99.90;;;;;;4990380;28;20180;-73
2022/03/02 06:31:06;;;;;;;16.70;10.57;;;-1.30;99.90;;;;;;4990067;28;20800;-75
2022/03/02 06:33:32;;;;;;;22.90;11.70;;;-1.20;99.90;;;;;;4989640;28;20253;-72
2022/03/02 06:35:57;;;;;;;19.77;10.37;;;-1.20;99.90;;;;;;4989880;28;20206;-74
2022/03/02 06:38:23;;;;;;;20.40;11.40;;;-1.10;99.90;;;;;;4990678;28;20731;-74
2022/03/02 06:41:28;;;;;;;27.20;11.97;;;-1.10;99.90;;;;;;4990121;28;20186;-75
2022/03/02 06:44:04;;;;;;;23.43;11.70;;;-1.00;99.90;;;;;;4978595;28;20191;-73
2022/03/02 06:46:32;;;;;;;18.30;12.60;;;-0.90;99.90;;;;;;4980466;28;20432;-74
2022/03/02 06:49:10;;;;;;;24.10;12.20;;;-0.90;99.90;;;;;;4979429;28;20505;-73
2022/03/02 06:51:39;;;;;;;18.07;11.30;;;-0.80;99.90;;;;;;4980828;28;20440;-72
2022/03/02 06:54:08;;;;;;;18.87;11.10;;;-0.70;99.90;;;;;;4980739;28;20454;-74
2022/03/02 06:56:44;;;;;;;24.50;12.10;;;-0.60;99.90;;;;;;4989532;28;20398;-72
2022/03/02 06:59:12;;;;;;;23.43;12.30;;;-0.50;99.90;;;;;;4990410;28;20393;-73
2022/03/02 07:01:42;;;;;;;18.53;11.87;;;-0.40;99.90;;;;;;4989443;28;20430;-71
2022/03/02 07:04:12;;;;;;;16.73;11.80;;;-0.20;99.90;;;;;;4989878;28;20862;-73
2022/03/02 07:06:38;;;;;;;21.23;12.30;;;0.00;99.90;;;;;;4990227;28;20392;-73
2022/03/02 07:09:04;;;;;;;16.23;12.23;;;0.00;99.90;;;;;;4990205;28;20395;-73
2022/03/02 07:11:33;;;;;;;33.53;13.67;;;0.20;99.90;;;;;;4989943;28;20277;-72
2022/03/02 07:13:59;;;;;;;23.90;13.03;;;0.30;99.90;;;;;;4988006;28;20436;-73
2022/03/02 07:16:24;;;;;;;18.90;11.33;;;0.30;99.90;;;;;;4991382;28;20573;-74
2022/03/02 07:18:53;;;;;;;28.80;13.40;;;0.40;99.90;;;;;;4994441;28;20451;-74
2022/03/02 07:21:22;;;;;;;36.50;13.30;;;0.50;99.90;;;;;;4993721;28;20247;-74
2022/03/02 07:23:59;;;;;;;28.43;11.57;;;0.70;99.90;;;;;;4992992;28;20452;-74
2022/03/02 07:26:27;;;;;;;22.17;14.13;;;0.70;99.90;;;;;;4993057;28;20395;-74
2022/03/02 07:28:54;;;;;;;25.87;13.80;;;0.80;99.90;;;;;;4993254;28;20798;-73
2022/03/02 07:31:21;;;;;;;27.70;13.63;;;0.90;99.90;;;;;;4993028;28;20432;-75
2022/03/02 07:33:47;;;;;;;23.70;14.60;;;1.00;99.90;;;;;;4992472;28;20416;-75
2022/03/02 07:36:15;;;;;;;21.10;13.27;;;1.00;99.90;;;;;;4992723;28;20422;-74
2022/03/02 07:38:41;;;;;;;25.13;13.67;;;1.10;99.90;;;;;;4991656;28;20742;-74
2022/03/02 07:41:08;;;;;;;20.80;13.23;;;1.20;99.90;;;;;;4990917;28;20462;-75
2022/03/02 07:43:38;;;;;;;22.83;13.60;;;1.20;99.90;;;;;;4992070;28;20168;-73
2022/03/02 07:46:09;;;;;;;24.10;13.60;;;1.20;99.90;;;;;;4993222;28;20412;-75
2022/03/02 07:48:36;;;;;;;19.90;12.90;;;1.30;99.90;;;;;;4992928;28;20965;-74
2022/03/02 07:51:03;;;;;;;21.47;12.73;;;1.30;99.90;;;;;;4993193;28;20452;-75
2022/03/02 07:53:36;;;;;;;25.07;14.33;;;1.30;99.90;;;;;;4991641;28;20410;-74
2022/03/02 07:56:04;;;;;;;21.33;13.73;;;1.40;99.90;;;;;;4992936;28;20448;-74
2022/03/02 07:58:30;;;;;;;26.07;15.47;;;1.50;99.90;;;;;;4993023;28;20188;-74
2022/03/02 08:00:58;;;;;;;20.70;13.10;;;1.50;99.90;;;;;;4992574;28;20427;-74
2022/03/02 08:03:26;;;;;;;31.77;15.10;;;1.70;99.90;;;;;;4991906;28;20396;-72
2022/03/02 08:05:54;;;;;;;21.27;14.10;;;1.80;99.90;;;;;;4991314;28;20386;-75
2022/03/02 08:08:20;;;;;;;29.60;14.10;;;1.80;99.90;;;;;;4991752;28;20404;-75
2022/03/02 08:10:46;;;;;;;30.83;14.63;;;1.90;99.90;;;;;;4992014;28;20420;-75
2022/03/02 08:13:13;;;;;;;29.10;13.90;;;2.10;99.90;;;;;;4992350;28;20582;-74
2022/03/02 08:15:40;;;;;;;26.07;15.07;;;2.30;99.90;;;;;;4991859;28;20822;-72
2022/03/02 08:18:06;;;;;;;29.43;15.70;;;2.40;99.90;;;;;;4991517;28;20429;-75
2022/03/02 08:20:34;;;;;;;22.37;14.73;;;2.50;99.90;;;;;;4992287;28;20392;-74
2022/03/02 08:23:04;;;;;;;21.00;13.90;;;2.70;99.90;;;;;;4992169;28;20173;-75
2022/03/02 08:25:32;;;;;;;23.83;13.80;;;2.80;99.90;;;;;;4992077;28;20425;-74
2022/03/02 08:28:01;;;;;;;30.20;19.00;;;2.90;99.90;;;;;;4991725;28;20502;-74
2022/03/02 08:30:30;;;;;;;36.33;21.13;;;2.90;99.90;;;;;;4990825;28;20519;-74
2022/03/02 08:32:57;;;;;;;28.73;16.57;;;2.90;99.90;;;;;;4991717;28;20461;-75
2022/03/02 08:35:24;;;;;;;26.93;16.47;;;3.00;99.90;;;;;;4992492;28;20463;-75
2022/03/02 08:37:49;;;;;;;32.77;15.47;;;3.10;99.90;;;;;;4992317;28;20413;-75
2022/03/02 08:40:15;;;;;;;25.37;15.90;;;3.10;99.90;;;;;;4991437;28;20498;-74
2022/03/02 08:42:41;;;;;;;30.87;17.13;;;3.20;99.90;;;;;;4992015;28;20202;-75
2022/03/02 08:45:07;;;;;;;26.67;15.47;;;3.30;99.90;;;;;;4991717;28;20179;-75
2022/03/02 08:47:34;;;;;;;24.87;15.80;;;3.50;99.90;;;;;;4991624;28;20902;-73
2022/03/02 08:49:59;;;;;;;27.67;14.67;;;3.60;99.90;;;;;;4992270;28;20385;-74
2022/03/02 08:52:27;;;;;;;36.73;15.53;;;3.70;99.90;;;;;;4991571;28;20950;-74
2022/03/02 08:54:54;;;;;;;26.53;15.33;;;3.70;99.90;;;;;;4991340;28;20208;-74
2022/03/02 08:57:21;;;;;;;31.83;15.30;;;3.90;99.90;;;;;;4992034;28;20386;-75
2022/03/02 08:59:52;;;;;;;29.77;15.37;;;4.00;99.90;;;;;;4991706;28;20419;-74
2022/03/02 09:02:19;;;;;;;31.70;14.57;;;4.00;99.90;;;;;;4991800;28;20907;-75
2022/03/02 09:04:47;;;;;;;26.43;15.60;;;4.20;99.90;;;;;;4991133;28;20445;-75
2022/03/02 09:07:13;;;;;;;26.00;14.80;;;4.40;99.90;;;;;;4991150;28;20423;-74
2022/03/02 09:09:39;;;;;;;32.53;14.30;;;4.60;99.90;;;;;;4992117;28;20764;-75
2022/03/02 09:12:07;;;;;;;28.07;15.00;;;4.70;99.90;;;;;;4992070;28;20676;-75
2022/03/02 09:14:32;;;;;;;25.67;15.50;;;4.80;99.90;;;;;;4990943;28;20480;-74
2022/03/02 09:17:00;;;;;;;24.90;15.93;;;5.00;99.90;;;;;;4991449;28;20422;-77
2022/03/02 09:19:25;;;;;;;24.57;15.07;;;5.40;99.90;;;;;;4991783;28;20211;-77
2022/03/02 09:21:51;;;;;;;24.13;14.50;;;5.80;99.90;;;;;;4991814;28;20937;-77
2022/03/02 09:24:18;;;;;;;26.50;14.90;;;6.20;99.90;;;;;;4991213;28;20509;-77
2022/03/02 09:26:45;;;;;;;26.03;15.43;;;6.50;99.90;;;;;;4990972;28;20428;-77
2022/03/02 09:29:11;;;;;;;28.83;15.83;;;6.50;99.90;;;;;;4991750;28;20431;-78
2022/03/02 09:31:37;;;;;;;26.57;14.50;;;6.70;99.90;;;;;;4991755;28;20487;-76
2022/03/02 09:34:05;;;;;;;29.70;16.00;;;6.90;99.90;;;;;;4991623;28;20591;-77
2022/03/02 09:36:34;;;;;;;24.57;15.50;;;6.80;99.90;;;;;;4991283;28;20974;-77
2022/03/02 09:39:02;;;;;;;25.67;16.23;;;6.80;99.90;;;;;;4991170;28;20411;-77
2022/03/02 09:41:35;;;;;;;35.37;15.70;;;7.00;99.90;;;;;;4990708;28;20542;-77
2022/03/02 09:44:04;;;;;;;24.60;14.60;;;7.10;99.90;;;;;;4990788;28;20919;-77
2022/03/02 09:46:32;;;;;;;29.40;16.17;;;7.10;99.90;;;;;;4991107;28;20431;-77
2022/03/02 09:49:09;;;;;;;24.20;15.07;;;7.40;99.90;;;;;;4991058;28;20417;-76
2022/03/02 09:51:37;;;;;;;27.23;17.10;;;7.40;99.90;;;;;;4989017;28;20537;-75
2022/03/02 09:54:04;;;;;;;25.63;14.10;;;7.20;99.90;;;;;;4990003;28;20546;-74
2022/03/02 09:56:32;;;;;;;26.17;15.30;;;7.20;99.90;;;;;;4990584;28;20421;-75
2022/03/02 09:58:59;;;;;;;27.13;17.43;;;7.30;99.90;;;;;;4990908;28;20417;-75
2022/03/02 10:01:26;;;;;;;26.07;15.63;;;7.50;99.90;;;;;;4990701;28;20452;-75
2022/03/02 10:03:54;;;;;;;26.87;16.43;;;7.60;99.90;;;;;;4990718;28;20477;-75
2022/03/02 10:06:21;;;;;;;22.77;15.93;;;7.60;99.90;;;;;;4990826;28;20440;-72
2022/03/02 10:08:49;;;;;;;30.53;15.53;;;7.70;99.90;;;;;;4990370;28;20503;-77
2022/03/02 10:11:19;;;;;;;22.63;15.00;;;7.90;99.90;;;;;;4990479;28;20469;-75
2022/03/02 10:13:45;;;;;;;27.77;17.83;;;7.70;99.90;;;;;;4989854;28;20427;-75
2022/03/02 10:16:19;;;;;;;23.30;15.37;;;8.00;99.90;;;;;;4990730;28;20466;-75
2022/03/02 10:18:55;;;;;;;22.80;15.33;;;8.10;99.90;;;;;;4990645;28;20413;-75
2022/03/02 10:21:28;;;;;;;25.00;15.53;;;8.30;99.90;;;;;;4988883;28;20810;-75
2022/03/02 10:23:58;;;;;;;22.87;15.50;;;8.50;99.90;;;;;;4990212;28;20815;-74
2022/03/02 10:26:26;;;;;;;30.47;17.23;;;8.60;99.90;;;;;;4990705;28;20840;-75
2022/03/02 10:29:00;;;;;;;22.23;14.73;;;8.70;99.90;;;;;;4990458;28;20567;-76
2022/03/02 10:31:32;;;;;;;23.50;15.67;;;8.60;99.90;;;;;;4990549;28;20460;-76
2022/03/02 10:34:14;;;;;;;23.97;15.87;;;8.60;99.90;;;;;;4989558;28;20440;-76
2022/03/02 10:36:45;;;;;;;21.80;14.17;;;8.50;99.90;;;;;;4990452;28;20507;-76
2022/03/02 10:39:29;;;;;;;29.00;15.80;;;8.30;99.90;;;;;;4990319;28;20487;-75
2022/03/02 10:41:59;;;;;;;26.50;14.50;;;8.20;99.90;;;;;;4990651;28;20469;-74
2022/03/02 10:44:52;;;;;;;23.37;15.93;;;8.30;99.90;;;;;;4989471;28;20470;-74
2022/03/02 10:47:21;;;;;;;21.57;15.10;;;8.20;99.90;;;;;;4990749;28;20502;-74
2022/03/02 10:49:48;;;;;;;23.90;14.70;;;8.10;99.90;;;;;;4989590;28;20823;-76
2022/03/02 10:52:14;;;;;;;25.83;15.17;;;8.10;99.90;;;;;;4993884;28;20826;-75
2022/03/02 10:54:41;;;;;;;23.50;14.50;;;8.00;99.90;;;;;;4992475;28;20461;-74
2022/03/02 10:57:12;;;;;;;22.50;13.90;;;8.10;99.90;;;;;;4993922;28;20504;-75
2022/03/02 10:59:42;;;;;;;24.40;14.93;;;8.10;99.90;;;;;;4993741;28;20937;-72
2022/03/02 11:02:10;;;;;;;23.87;13.97;;;8.00;99.90;;;;;;4994146;28;20434;-75
2022/03/02 11:04:38;;;;;;;20.20;14.87;;;7.90;99.90;;;;;;4993961;28;20440;-73
2022/03/02 11:07:04;;;;;;;26.90;13.97;;;7.90;99.90;;;;;;4994526;28;20418;-75
2022/03/02 11:09:33;;;;;;;22.73;14.40;;;7.90;99.90;;;;;;4993183;28;20414;-74
2022/03/02 11:12:00;;;;;;;22.83;15.43;;;7.90;99.90;;;;;;4993822;28;20463;-74
2022/03/02 11:14:26;;;;;;;36.57;14.87;;;7.90;99.90;;;;;;4993418;28;20456;-74
2022/03/02 11:17:13;;;;;;;29.40;16.40;;;7.90;99.90;;;;;;4994040;28;20766;-75
2022/03/02 11:19:43;;;;;;;26.33;15.23;;;8.00;99.90;;;;;;4993274;28;20173;-73
2022/03/02 11:22:20;;;;;;;28.50;14.80;;;8.00;99.90;;;;;;4993406;28;20448;-74
2022/03/02 11:24:46;;;;;;;23.07;15.27;;;8.10;99.90;;;;;;4992835;28;20420;-75
2022/03/02 11:27:41;;;;;;;25.90;16.10;;;8.10;99.90;;;;;;4993701;28;20442;-75
2022/03/02 11:30:17;;;;;;;23.37;14.80;;;8.40;99.90;;;;;;4993547;28;20450;-75
2022/03/02 11:32:47;;;;;;;26.83;16.20;;;8.50;99.90;;;;;;4993151;28;21008;-74
2022/03/02 11:35:16;;;;;;;25.60;13.53;;;8.40;99.90;;;;;;4992878;28;20551;-74
2022/03/02 11:37:43;;;;;;;21.60;14.63;;;8.60;99.90;;;;;;4993274;28;20504;-75
2022/03/02 11:40:11;;;;;;;28.43;16.00;;;8.90;99.90;;;;;;4993283;28;20420;-74
2022/03/02 11:42:40;;;;;;;26.40;14.77;;;9.00;99.90;;;;;;4992971;28;20464;-74
2022/03/02 11:45:08;;;;;;;21.50;15.07;;;9.30;99.90;;;;;;4992910;28;20421;-74
2022/03/02 11:47:40;;;;;;;20.37;13.67;;;9.40;99.90;;;;;;4992771;28;20417;-74
2022/03/02 11:50:11;;;;;;;20.83;14.07;;;9.50;99.90;;;;;;4993044;28;20920;-74
2022/03/02 11:52:44;;;;;;;23.50;14.13;;;9.60;99.90;;;;;;4992690;28;20451;-74
2022/03/02 11:55:13;;;;;;;27.43;13.97;;;9.50;99.90;;;;;;4992792;28;20521;-75
2022/03/02 11:57:43;;;;;;;18.17;13.87;;;9.30;99.90;;;;;;4993165;28;20413;-72
2022/03/02 12:00:26;;;;;;;25.73;15.13;;;9.20;99.90;;;;;;4992957;28;20413;-75
2022/03/02 12:02:56;;;;;;;23.57;14.40;;;9.30;99.90;;;;;;4992142;28;20475;-74
2022/03/02 12:05:27;;;;;;;21.40;13.93;;;9.50;99.90;;;;;;4992763;28;20421;-75
2022/03/02 12:08:09;;;;;;;19.70;13.77;;;9.60;99.90;;;;;;4992728;28;20422;-73
2022/03/02 12:10:43;;;;;;;27.47;14.00;;;9.50;99.90;;;;;;4992452;28;20426;-75
2022/03/02 12:13:16;;;;;;;26.70;14.10;;;9.70;99.90;;;;;;4992379;28;20414;-74
2022/03/02 12:15:44;;;;;;;18.00;13.63;;;9.80;99.90;;;;;;4992963;28;20471;-76
2022/03/02 12:18:11;;;;;;;18.93;12.57;;;9.80;99.90;;;;;;4992375;28;20449;-75
2022/03/02 12:20:57;;;;;;;20.07;13.20;;;9.90;99.90;;;;;;4992136;28;20444;-74
2022/03/02 12:23:24;;;;;;;18.73;11.90;;;10.10;99.90;;;;;;4992127;28;20416;-75
2022/03/02 12:25:51;;;;;;;17.53;12.50;;;10.20;99.90;;;;;;4992500;28;20419;-74
2022/03/02 12:28:18;;;;;;;19.00;13.57;;;10.10;98.70;;;;;;4992136;28;20940;-74
2022/03/02 12:30:44;;;;;;;21.07;13.53;;;10.20;99.10;;;;;;4992002;28;20424;-75
2022/03/02 12:33:09;;;;;;;27.30;14.23;;;10.00;99.50;;;;;;4992125;28;20420;-75
2022/03/02 12:35:36;;;;;;;19.77;13.50;;;10.00;99.90;;;;;;4983049;28;20237;-75
2022/03/02 12:38:07;;;;;;;20.80;13.23;;;10.00;99.10;;;;;;4978421;28;20183;-75
2022/03/02 12:40:39;;;;;;;19.60;12.73;;;10.10;99.90;;;;;;4976520;28;20424;-74
2022/03/02 12:43:06;;;;;;;23.20;13.20;;;10.00;99.80;;;;;;4996496;28;20416;-75
2022/03/02 12:45:39;;;;;;;15.67;12.33;;;9.90;99.70;;;;;;4992289;28;20428;-74
2022/03/02 12:48:05;;;;;;;19.13;12.87;;;9.90;99.90;;;;;;4992089;28;20421;-75
2022/03/02 12:50:32;;;;;;;16.53;11.60;;;9.80;99.90;;;;;;4991325;28;20423;-75
2022/03/02 12:52:58;;;;;;;20.20;13.53;;;9.70;99.50;;;;;;4991386;28;20451;-75
2022/03/02 12:55:24;;;;;;;21.90;11.30;;;9.50;99.50;;;;;;4992233;28;20463;-75
2022/03/02 12:57:50;;;;;;;22.67;11.23;;;9.40;99.40;;;;;;4990713;28;20965;-72
2022/03/02 13:00:21;;;;;;;16.87;12.23;;;9.30;99.90;;;;;;4991616;28;20180;-74
2022/03/02 13:02:53;;;;;;;19.60;13.07;;;9.20;99.90;;;;;;4990636;28;20201;-73
2022/03/02 13:05:45;;;;;;;21.23;12.07;;;9.30;99.90;;;;;;4991999;28;20681;-75
2022/03/02 13:08:14;;;;;;;17.43;12.70;;;9.30;99.90;;;;;;4992157;28;20771;-75
2022/03/02 13:10:48;;;;;;;18.23;11.80;;;9.20;99.90;;;;;;4991049;28;20511;-75
2022/03/02 13:13:30;;;;;;;16.70;11.60;;;9.20;99.90;;;;;;4990702;28;20934;-74
2022/03/02 13:15:55;;;;;;;21.60;11.00;;;9.10;99.90;;;;;;4991670;28;20825;-75
2022/03/02 13:18:21;;;;;;;18.73;12.30;;;9.00;99.90;;;;;;4991835;28;20427;-76
2022/03/02 13:21:07;;;;;;;26.93;12.83;;;8.90;99.90;;;;;;4990417;28;20187;-75
2022/03/02 13:23:34;;;;;;;15.67;11.63;;;9.00;99.90;;;;;;4993488;28;20190;-75
2022/03/02 13:26:00;;;;;;;14.37;10.00;;;8.90;99.90;;;;;;4991554;28;20851;-76
2022/03/02 13:28:32;;;;;;;21.10;11.67;;;9.00;99.90;;;;;;4991667;28;20453;-76
2022/03/02 13:31:13;;;;;;;20.60;11.87;;;8.90;99.90;;;;;;4990543;28;20256;-75
2022/03/02 13:33:57;;;;;;;15.70;10.73;;;8.90;99.90;;;;;;4990649;28;20538;-75
2022/03/02 13:36:46;;;;;;;17.27;10.57;;;9.00;99.90;;;;;;4991259;28;20424;-75
2022/03/02 13:39:48;;;;;;;15.73;9.73;;;9.10;99.90;;;;;;4990685;28;20428;-75
2022/03/02 13:42:24;;;;;;;15.77;10.10;;;9.20;99.90;;;;;;4991192;28;20503;-74
2022/03/02 13:44:50;;;;;;;12.23;10.07;;;9.30;99.90;;;;;;4990831;28;20504;-75
2022/03/02 13:47:22;;;;;;;18.17;11.20;;;9.30;99.90;;;;;;4990985;28;20502;-76
2022/03/02 13:49:53;;;;;;;15.20;10.07;;;9.30;99.90;;;;;;4990436;28;20518;-74
2022/03/02 13:52:27;;;;;;;16.90;10.63;;;9.20;99.90;;;;;;4991101;28;20512;-75
2022/03/02 13:54:54;;;;;;;15.70;10.30;;;9.20;99.80;;;;;;4990324;28;20511;-74
2022/03/02 13:57:22;;;;;;;13.77;10.03;;;9.30;99.90;;;;;;4991255;28;20412;-75
2022/03/02 14:00:06;;;;;;;14.17;9.37;;;9.10;99.50;;;;;;4990855;28;20767;-72
2022/03/02 14:02:36;;;;;;;12.80;9.07;;;9.10;99.40;;;;;;4990074;28;20803;-75
2022/03/02 14:05:02;;;;;;;12.80;9.87;;;9.00;98.90;;;;;;4990180;28;20496;-76
2022/03/02 14:07:30;;;;;;;14.10;9.40;;;9.00;99.50;;;;;;4990848;28;20422;-75
2022/03/02 14:10:04;;;;;;;15.77;9.97;;;8.90;99.90;;;;;;4990636;28;20270;-76
2022/03/02 14:12:30;;;;;;;14.30;9.73;;;8.90;99.80;;;;;;4990170;28;20937;-75
2022/03/02 14:15:11;;;;;;;16.40;9.50;;;8.80;99.10;;;;;;4990088;28;20546;-75
2022/03/02 14:17:37;;;;;;;16.33;11.37;;;8.80;99.90;;;;;;4990335;28;20657;-74
2022/03/02 14:20:04;;;;;;;14.57;10.13;;;8.90;99.90;;;;;;4990944;28;20538;-74
2022/03/02 14:22:29;;;;;;;16.03;10.50;;;9.00;99.70;;;;;;4990086;28;20977;-74
2022/03/02 14:24:55;;;;;;;24.80;10.37;;;8.90;99.90;;;;;;4990042;28;20422;-73
2022/03/02 14:27:27;;;;;;;15.37;10.10;;;8.90;98.70;;;;;;4994780;28;20264;-74
2022/03/02 14:29:54;;;;;;;16.90;10.37;;;8.70;99.00;;;;;;4994495;28;20173;-73
2022/03/02 14:32:36;;;;;;;15.50;11.33;;;8.60;99.90;;;;;;4994608;28;20847;-74
2022/03/02 14:35:06;;;;;;;15.40;11.03;;;8.50;99.90;;;;;;4994272;28;20467;-75
2022/03/02 14:37:39;;;;;;;23.10;11.20;;;8.40;99.90;;;;;;4994556;28;20406;-74
2022/03/02 14:40:05;;;;;;;14.20;10.30;;;8.30;99.90;;;;;;4993989;28;20729;-75
2022/03/02 14:42:33;;;;;;;16.47;10.40;;;8.30;99.90;;;;;;4994299;28;20439;-74
2022/03/02 14:45:12;;;;;;;18.10;9.70;;;8.30;99.90;;;;;;4993946;28;20428;-74
2022/03/02 14:47:42;;;;;;;11.83;9.90;;;8.40;99.90;;;;;;4994214;28;20991;-73
2022/03/02 14:50:35;;;;;;;15.77;10.27;;;8.40;99.90;;;;;;4993732;28;20404;-74
2022/03/02 14:53:08;;;;;;;19.80;9.57;;;8.30;99.90;;;;;;4993839;28;20443;-75
2022/03/02 14:56:00;;;;;;;14.87;9.83;;;8.40;99.90;;;;;;4993910;28;20468;-73
2022/03/02 14:58:50;;;;;;;17.43;10.70;;;8.40;99.90;;;;;;4987647;28;20837;-74
2022/03/02 15:01:18;;;;;;;16.80;11.63;;;8.40;99.90;;;;;;4993788;28;20851;-73
2022/03/02 15:03:46;;;;;;;16.57;11.87;;;8.40;99.90;;;;;;4982511;28;20472;-74
2022/03/02 15:06:13;;;;;;;18.40;11.97;;;8.30;99.90;;;;;;4975074;28;20511;-74
2022/03/02 15:08:46;;;;;;;20.00;12.10;;;8.30;99.90;;;;;;4922187;28;21509;-79
2022/03/02 15:11:18;;;;;;;15.73;13.07;;;8.30;99.90;;;;;;4868412;28;20724;-80
2022/03/02 15:16:44;;;;;;;17.00;12.70;;;8.30;99.90;;;;;;4986551;28;20508;-75
2022/03/02 15:19:11;;;;;;;20.43;12.53;;;8.30;99.90;;;;;;4971767;28;20828;-75
2022/03/02 15:21:37;;;;;;;18.63;11.50;;;8.30;99.90;;;;;;4968776;28;20952;-75
2022/03/02 15:24:04;;;;;;;19.80;14.00;;;8.20;99.90;;;;;;4984570;28;20826;-75
2022/03/02 15:26:29;;;;;;;22.13;12.30;;;8.20;99.90;;;;;;4991561;28;20440;-73
2022/03/02 15:29:09;;;;;;;15.00;11.13;;;8.10;99.90;;;;;;4991118;28;20459;-75
2022/03/02 15:31:52;;;;;;;26.27;12.80;;;8.10;99.90;;;;;;4992587;28;20724;-74
2022/03/02 15:34:19;;;;;;;21.33;13.10;;;8.20;99.90;;;;;;4990380;28;20479;-74
2022/03/02 15:36:57;;;;;;;22.73;11.83;;;8.10;99.90;;;;;;4991666;28;20443;-73
2022/03/02 15:39:37;;;;;;;17.60;11.90;;;8.00;99.90;;;;;;4991384;28;20478;-74
2022/03/02 15:42:14;;;;;;;17.60;12.30;;;8.00;99.90;;;;;;4991281;28;20457;-73
2022/03/02 15:45:02;;;;;;;21.93;12.20;;;8.00;99.90;;;;;;4990517;28;20806;-74
2022/03/02 15:47:30;;;;;;;26.30;11.83;;;8.00;99.90;;;;;;4990325;28;20498;-74
2022/03/02 15:49:56;;;;;;;14.37;11.10;;;8.00;99.90;;;;;;4990725;28;20451;-74
2022/03/02 15:52:36;;;;;;;19.53;11.77;;;7.90;99.90;;;;;;4991241;28;20450;-74
2022/03/02 15:55:02;;;;;;;18.40;12.40;;;7.90;99.90;;;;;;4990243;28;20310;-74
2022/03/02 15:57:28;;;;;;;18.53;12.00;;;7.80;99.90;;;;;;4992012;28;20534;-74
2022/03/02 16:00:06;;;;;;;22.30;11.70;;;7.80;99.90;;;;;;4974600;28;21011;-76
2022/03/02 16:02:35;;;;;;;22.93;12.00;;;7.70;99.90;;;;;;4989878;28;20202;-74
2022/03/02 16:05:07;;;;;;;18.87;12.57;;;7.60;99.90;;;;;;4991798;28;20497;-74
2022/03/02 16:07:34;;;;;;;24.13;11.63;;;7.60;99.90;;;;;;4990692;28;20448;-74
2022/03/02 16:10:01;;;;;;;24.17;13.47;;;7.60;99.90;;;;;;4990398;28;20957;-74
2022/03/02 16:12:44;;;;;;;23.67;13.17;;;7.60;99.90;;;;;;4990247;28;20449;-74
2022/03/02 16:15:12;;;;;;;18.70;12.20;;;7.50;99.90;;;;;;4990618;28;20561;-74
2022/03/02 16:17:51;;;;;;;25.93;13.40;;;7.50;99.90;;;;;;4991567;28;20443;-74
2022/03/02 16:20:24;;;;;;;19.13;13.00;;;7.50;99.90;;;;;;4992315;28;21149;-74
2022/03/02 16:23:11;;;;;;;18.20;12.17;;;7.50;99.90;;;;;;4989120;28;20414;-74
2022/03/02 16:25:49;;;;;;;20.73;12.47;;;7.50;99.90;;;;;;4990775;28;20506;-74
2022/03/02 16:28:17;;;;;;;21.30;13.03;;;7.50;99.90;;;;;;4990304;28;20546;-74
2022/03/02 16:30:44;;;;;;;20.40;12.70;;;7.50;99.90;;;;;;4989854;28;20464;-74
2022/03/02 16:33:09;;;;;;;28.53;12.63;;;7.40;99.90;;;;;;4990923;28;20850;-74
2022/03/02 16:35:38;;;;;;;17.37;12.10;;;7.40;99.90;;;;;;4989768;28;20526;-75
2022/03/02 16:38:05;;;;;;;24.40;13.00;;;7.30;99.90;;;;;;4990371;28;20432;-72
2022/03/02 16:40:31;;;;;;;18.00;11.67;;;7.20;99.90;;;;;;4991122;28;20460;-75
2022/03/02 16:42:58;;;;;;;19.23;12.30;;;7.20;99.90;;;;;;4989409;28;20809;-75
2022/03/02 16:45:25;;;;;;;18.60;12.33;;;7.10;99.90;;;;;;4989572;28;20495;-76
2022/03/02 16:47:51;;;;;;;27.80;13.40;;;7.10;99.90;;;;;;4988962;28;20813;-74
2022/03/02 16:50:17;;;;;;;20.17;13.07;;;7.00;99.90;;;;;;4991121;28;20434;-74
2022/03/02 16:52:44;;;;;;;26.43;12.03;;;7.00;99.90;;;;;;4989270;28;20209;-71
2022/03/02 16:55:11;;;;;;;27.23;14.77;;;6.90;99.90;;;;;;4989707;28;20553;-74
2022/03/02 16:57:38;;;;;;;20.13;13.10;;;6.80;99.90;;;;;;4989175;28;20448;-75
2022/03/02 17:00:06;;;;;;;24.93;13.43;;;6.80;99.90;;;;;;4994433;28;20459;-76
2022/03/02 17:02:31;;;;;;;28.03;12.77;;;6.70;99.90;;;;;;5000109;28;20439;-75
2022/03/02 17:04:57;;;;;;;17.40;12.17;;;6.70;99.90;;;;;;4989565;28;20457;-73
2022/03/02 17:07:23;;;;;;;22.53;12.90;;;6.70;99.90;;;;;;4989575;28;20192;-72
2022/03/02 17:09:49;;;;;;;17.90;11.87;;;6.60;99.90;;;;;;4990439;28;20724;-72
2022/03/02 17:12:15;;;;;;;21.60;12.07;;;6.60;99.90;;;;;;4989614;28;20446;-75
2022/03/02 17:14:40;;;;;;;17.40;13.80;;;6.60;99.90;;;;;;4990069;28;20220;-75
2022/03/02 17:17:06;;;;;;;20.10;13.37;;;6.50;99.90;;;;;;4989996;28;20204;-76
2022/03/02 17:19:32;;;;;;;19.90;13.73;;;6.50;99.90;;;;;;4989207;28;20631;-75
2022/03/02 17:21:58;;;;;;;18.93;12.43;;;6.50;99.90;;;;;;4989673;28;20195;-75